Championnat de France Moyenne Distance (WRE) BOURBACH-LE-BAS (68) - T

Date : 09/05/2026
Valeur du circuit : 4435476 point × seconde

Place Nom Licence Catégorie Club Temps CN à J-15 Valeur Points Différence Nouveau CN
1 BALEYDIER Clémence 42067 D14 4302AR 0:26:06 3577 5601582 2832 -745 3577
2 DARRIEUTORT Léna 47109 D14 0109AR 0:30:59 1970 3662230 2386 +416 1930
3 GOUVERNAYRE Tyfenn 35994 D14 3810AR 0:33:22 2053 4110106 2216 +163 2142
4 HUBAC Noélie 40670 D14 0703AR 0:34:34 1967 4079558 2139 +172 2010
5 LEDROIT Anaïs 40993 D14 0615PZ 0:35:22 1752 3717744 2090 +338 1789
6 GARCIA Eline 36100 D14 0705AR 0:35:40 1939 4149460 2073 +134 1976
7 OGIER Erin 41959 D14 4203AR 0:38:25 2039 4699895 1924 -115 2006
8 DERLOT Alix 39546 D14 7707IF 0:39:45 1726 4116510 1860 +134 1861
9 BONNIN Maëlle 44004 D14 3318NA 0:41:58 1676 4220168 1762 +86 1720
10 BERNARD Mathilde 39519 D14 2517BF 0:42:40 1429 3658240 1733 +304 1481
11 GRUOT Rose 44562 D14 2105BF 0:42:58 1777 4581106 1721 -56 1845
12 BEUN Apolline 49345 D14 6208HF 0:44:15 1651 4383405 1671 +20 1630
13 CHAMBON Marilou 38143 D14 1303PZ 0:46:26 1354 3772244 1592 +238 1427
14 PARISOT Florine 40690 D14 0207HF 0:47:27 1583 4506801 1558 -25 1641
15 FOUCHIER Cloé 42664 D14 1303PZ 0:47:33 1600 4564800 1555 -45 1655
16 GAFFURI Pauline 38224 D14 5703GE 0:48:20 2235 6481500 1529 -706 2191
17 DEWILDE Daphné 41372 D14 5907HF 0:48:45 1747 5109975 1516 -231 1810
18 BALEYDIER Adèle 40850 D14 6911AR 0:51:20 1321 4068680 1440 +119 1291
19 PERRET Zélie 34819 D14 0109AR 0:52:19 1564 4909396 1413 -151 1589
20 LELARGE Mona 46053 D14 6008HF 0:52:19 1375 4316125 1413 +38 1388
21 LEJEUNE Estelle 41042 D14 9105IF 0:53:24 1887 1384 -503 1887
22 GARDE Alena 36356 D14 4203AR 0:54:38 1481 1353 -128 1483
23 MILEO Adèle 40789 D14 7605NM 0:57:05 1644 1295 -349 1734
24 MOREY Louise 36431 D14 7716IF 0:57:20 1562 1289 -273 1550
25 VENOT Pauline 43429 D14 1307PZ 0:57:40 1276 1282 +6 1261
26 CHAZALMARTIN Manon 36239 D14 3105OC 0:59:37 1753 1240 -513 1487
27 ROBERT Mathilde 36103 D14 2508BF 1:00:28 1163 1223 +60 1181
28 BARBIER Clélia 46464 D14 9105IF 1:00:45 1512 1217 -295 1512
29 COUMAU Jeanne 41989 D14 4709NA 1:04:29 1986 1146 -840 1876
30 MERLE Thelma 41594 D14 4201AR 1:08:39 1216 1077 -139 1216
CHANDEZON Melusine 35327 D14 2105BF pm 1814 0 1793
HEYRMAN Lisa 40011 D14 2109BF pm 1172 0 1172